Hagewood, Louisiana
Current Conditions -  °F | °C
As of 8:15 AM on Thursday 29 Jan 2015 (Local Time) from KIER Reporting Station
Overcast Overcast  
Wind Chill: 57°   Ceiling: 900
Heat Index: 57°   Visibility: 10mi
Dew Point: 56°   Wind: 5mph
Humidity: 96%   Direction: 220°SW
Pressure: 30.2"   Gusts: NA
Location:  31.7831°N, 93.1496°W
Report Text: KIER 291415Z AUTO 22004KT 10SM OVC009 14/13 A3020 RMK AO2 T01380131
Loading
Personal Weather Stations






























Interactive Weather Map New forecast layout! Learn more

10-Day Weather Forecast

Advertisements
Track Severe Weather on mobile